createdAt,value
2023-02-19T00:00:07.373Z,101006.88
2023-02-19T00:02:42.127Z,100993.41
2023-02-19T00:05:11.372Z,101010.91
2023-02-19T00:07:40.284Z,100917.75
2023-02-19T00:10:09.341Z,101022.28
2023-02-19T00:12:37.930Z,101009.69
2023-02-19T00:15:06.961Z,101000.66
2023-02-19T00:17:35.659Z,101034.06
2023-02-19T00:20:04.420Z,101037.22
2023-02-19T00:22:33.164Z,101038.59
2023-02-19T00:25:01.742Z,100923.78
2023-02-19T00:27:30.421Z,101035.00
2023-02-19T00:29:59.471Z,101018.81
2023-02-19T00:32:28.043Z,101056.81
2023-02-19T00:34:56.911Z,101055.72
2023-02-19T00:37:26.968Z,101034.09
2023-02-19T00:39:55.816Z,101028.41
2023-02-19T00:42:24.584Z,101031.19
2023-02-19T00:44:53.107Z,100932.28
2023-02-19T00:47:21.930Z,101062.06
2023-02-19T00:49:50.585Z,101023.81
2023-02-19T00:52:19.330Z,100936.75
2023-02-19T00:54:48.247Z,101056.94
2023-02-19T00:57:16.984Z,101053.28
2023-02-19T00:59:45.686Z,101015.75
2023-02-19T01:02:14.544Z,101045.38
2023-02-19T01:04:43.324Z,100942.53
2023-02-19T01:07:12.580Z,101074.59
2023-02-19T01:09:41.241Z,101066.78
2023-02-19T01:12:09.981Z,101028.22
2023-02-19T01:14:38.741Z,101027.00
2023-02-19T01:17:07.545Z,101032.66
2023-02-19T01:19:36.303Z,101026.47
2023-02-19T01:22:05.125Z,101051.19
2023-02-19T01:24:33.779Z,100939.25
2023-02-19T01:27:02.515Z,101072.56
2023-02-19T01:29:31.517Z,101028.63
2023-02-19T01:32:02.930Z,101050.91
2023-02-19T01:34:34.182Z,101066.53
2023-02-19T01:37:02.886Z,101065.66
2023-02-19T01:39:31.764Z,101071.97
2023-02-19T01:42:00.900Z,101035.19
2023-02-19T01:44:29.680Z,101072.47
2023-02-19T01:46:59.423Z,100940.00
2023-02-19T01:49:49.503Z,101057.84
2023-02-19T01:52:35.221Z,101073.97
2023-02-19T01:55:07.221Z,101078.13
2023-02-19T01:57:40.927Z,101071.81
2023-02-19T02:00:13.786Z,100953.72
2023-02-19T02:02:45.901Z,100962.38
2023-02-19T02:05:46.309Z,101091.56
2023-02-19T02:08:36.040Z,100964.50
2023-02-19T02:11:05.362Z,101059.34
2023-02-19T02:13:36.135Z,101021.06
2023-02-19T02:16:16.775Z,101092.84
2023-02-19T02:19:28.564Z,101102.56
2023-02-19T02:22:09.016Z,101093.56
2023-02-19T02:25:01.531Z,101105.94
2023-02-19T02:27:54.406Z,101064.59
2023-02-19T02:30:38.906Z,101106.19
2023-02-19T02:33:13.610Z,101102.91
2023-02-19T02:35:54.200Z,101107.06
2023-02-19T02:38:29.861Z,100967.88
2023-02-19T02:40:59.224Z,101100.72
2023-02-19T02:43:28.277Z,101115.47
2023-02-19T02:45:57.123Z,101084.59
2023-02-19T02:48:43.453Z,101115.72
2023-02-19T02:51:27.713Z,101114.72
2023-02-19T02:54:31.924Z,101087.06
2023-02-19T02:57:03.943Z,101049.41
2023-02-19T02:59:40.215Z,101081.44
2023-02-19T03:02:15.811Z,101078.16
2023-02-19T03:05:26.868Z,101132.09
2023-02-19T03:08:13.085Z,101115.25
2023-02-19T03:10:57.764Z,101116.75
2023-02-19T03:13:52.966Z,101115.72
2023-02-19T03:16:45.729Z,101068.38
2023-02-19T03:19:20.654Z,101065.50
2023-02-19T03:21:59.853Z,101108.44
2023-02-19T03:24:52.081Z,101127.09
2023-02-19T03:27:22.986Z,101112.84
2023-02-19T03:30:02.884Z,101119.78
2023-02-19T03:32:38.095Z,101078.47
2023-02-19T03:35:12.623Z,101077.22
2023-02-19T03:38:02.253Z,101075.09
2023-02-19T03:40:42.580Z,101067.53
2023-02-19T03:43:20.340Z,101116.28
2023-02-19T03:45:59.437Z,101002.25
2023-02-19T03:48:39.232Z,101125.34
2023-02-19T03:51:40.788Z,101092.19
2023-02-19T03:54:26.963Z,101128.22
2023-02-19T03:57:03.070Z,101096.63
2023-02-19T03:59:44.843Z,101127.44
2023-02-19T04:02:30.512Z,101080.34
2023-02-19T04:05:18.088Z,101079.50
2023-02-19T04:07:54.852Z,101090.88
2023-02-19T04:10:32.667Z,101054.97
2023-02-19T04:13:07.429Z,101096.97
2023-02-19T04:15:37.989Z,100988.22
2023-02-19T04:18:15.834Z,101079.28
2023-02-19T04:20:47.072Z,101112.75
2023-02-19T04:23:20.376Z,101086.00
2023-02-19T04:25:55.880Z,101071.41
2023-02-19T04:28:24.800Z,101108.59
2023-02-19T04:30:53.418Z,101116.75
2023-02-19T04:33:22.353Z,101074.78
2023-02-19T04:35:51.038Z,101121.44
2023-02-19T04:38:19.754Z,101107.47
2023-02-19T04:40:48.616Z,101107.91
2023-02-19T04:43:17.418Z,101075.00
2023-02-19T04:45:46.136Z,101076.59
2023-02-19T04:48:15.492Z,101102.31
2023-02-19T04:50:44.496Z,101043.06
2023-02-19T04:53:13.144Z,101069.91
2023-02-19T04:55:42.079Z,101093.06
2023-02-19T04:58:10.774Z,101122.03
2023-02-19T05:00:39.531Z,101084.25
2023-02-19T05:03:08.295Z,101074.56
2023-02-19T05:05:37.155Z,101093.16
2023-02-19T05:08:06.050Z,101069.06
2023-02-19T05:10:35.392Z,101082.88
2023-02-19T05:13:04.172Z,101119.47
2023-02-19T05:15:32.839Z,101106.59
2023-02-19T05:18:01.617Z,101114.03
2023-02-19T05:20:30.232Z,101122.31
2023-02-19T05:22:58.979Z,101010.34
2023-02-19T05:25:27.574Z,100998.31
2023-02-19T05:28:16.256Z,101122.47
2023-02-19T05:30:54.085Z,101089.56
2023-02-19T05:33:25.395Z,101103.03
2023-02-19T05:35:56.796Z,101022.28
2023-02-19T05:38:25.815Z,100954.66
2023-02-19T05:40:54.539Z,101126.69
2023-02-19T05:43:23.195Z,101132.66
2023-02-19T05:45:54.315Z,101093.53
2023-02-19T05:48:23.143Z,101112.97
2023-02-19T05:50:51.879Z,101090.00
2023-02-19T05:53:22.297Z,101081.16
2023-02-19T05:55:51.135Z,101103.22
2023-02-19T05:58:20.195Z,101098.97
2023-02-19T06:00:49.038Z,101034.53
2023-02-19T06:03:17.714Z,101143.53
2023-02-19T06:05:46.381Z,101125.16
2023-02-19T06:08:16.403Z,101140.19
2023-02-19T06:10:45.243Z,101132.56
2023-02-19T06:13:14.691Z,101094.63
2023-02-19T06:15:44.243Z,101124.59
2023-02-19T06:18:13.090Z,101090.88
2023-02-19T06:20:44.829Z,101102.81
2023-02-19T06:23:13.551Z,101118.25
2023-02-19T06:25:42.849Z,101147.44
2023-02-19T06:28:12.529Z,101135.09
2023-02-19T06:30:41.218Z,101142.97
2023-02-19T06:33:09.991Z,101148.03
2023-02-19T06:35:38.633Z,101131.66
2023-02-19T06:38:07.454Z,101105.19
2023-02-19T06:40:36.032Z,101127.56
2023-02-19T06:43:05.068Z,101100.63
2023-02-19T06:45:33.647Z,101127.00
2023-02-19T06:48:02.528Z,101105.16
2023-02-19T06:50:31.309Z,101104.47
2023-02-19T06:53:00.235Z,101109.19
2023-02-19T06:55:28.976Z,101127.22
2023-02-19T06:57:58.306Z,101116.78
2023-02-19T07:00:27.137Z,101116.28
2023-02-19T07:02:57.288Z,101113.31
2023-02-19T07:05:26.167Z,101108.97
2023-02-19T07:07:54.906Z,101125.91
2023-02-19T07:10:23.867Z,101117.78
2023-02-19T07:12:52.906Z,101120.59
2023-02-19T07:15:24.681Z,101112.06
2023-02-19T07:17:53.442Z,101091.84
2023-02-19T07:20:22.116Z,101115.97
2023-02-19T07:22:51.270Z,101097.88
2023-02-19T07:25:22.722Z,101097.09
2023-02-19T07:27:51.514Z,101098.66
2023-02-19T07:30:20.301Z,101095.28
2023-02-19T07:32:49.226Z,101089.88
2023-02-19T07:35:18.065Z,101082.41
2023-02-19T07:37:46.803Z,101090.81
2023-02-19T07:40:15.993Z,101076.72
2023-02-19T07:42:44.789Z,101068.84
2023-02-19T07:45:13.767Z,101089.44
2023-02-19T07:47:42.509Z,101094.31
2023-02-19T07:50:13.887Z,101114.19
2023-02-19T07:52:42.616Z,101062.97
2023-02-19T07:55:11.351Z,101089.00
2023-02-19T07:57:40.311Z,101100.63
2023-02-19T08:00:09.290Z,101076.53
2023-02-19T08:03:02.310Z,101079.81
2023-02-19T08:05:33.771Z,101116.00
2023-02-19T08:08:02.409Z,101071.47
2023-02-19T08:10:49.585Z,101108.47
2023-02-19T08:13:23.499Z,101070.25
2023-02-19T08:16:21.727Z,101080.28
2023-02-19T08:18:50.840Z,100998.34
2023-02-19T08:21:19.726Z,101107.19
2023-02-19T08:23:50.911Z,101084.16
2023-02-19T08:26:20.208Z,101108.31
2023-02-19T08:28:49.887Z,101086.25
2023-02-19T08:31:18.815Z,101067.75
2023-02-19T08:33:47.504Z,101075.16
2023-02-19T08:36:16.240Z,101104.31
2023-02-19T08:38:44.830Z,101076.25
2023-02-19T08:41:16.628Z,101071.63
2023-02-19T08:43:45.524Z,101102.47
2023-02-19T08:46:14.582Z,101101.56
2023-02-19T08:48:43.562Z,101113.44
2023-02-19T08:51:13.309Z,101114.16
2023-02-19T08:53:42.637Z,101084.56
2023-02-19T08:56:14.270Z,101083.75
2023-02-19T08:58:43.428Z,101114.91
2023-02-19T09:01:14.936Z,101078.97
2023-02-19T09:03:44.057Z,101112.72
2023-02-19T09:06:18.452Z,101084.16
2023-02-19T09:08:47.042Z,101110.50
2023-02-19T09:11:16.244Z,101078.09
2023-02-19T09:13:45.408Z,101079.44
2023-02-19T09:16:14.184Z,101091.09
2023-02-19T09:18:42.825Z,101093.84
2023-02-19T09:21:11.846Z,101084.16
2023-02-19T09:23:40.926Z,101116.44
2023-02-19T09:26:12.108Z,101100.19
2023-02-19T09:28:42.407Z,101069.44
2023-02-19T09:31:17.047Z,101098.94
2023-02-19T09:33:49.815Z,101111.56
2023-02-19T09:36:19.581Z,101072.41
2023-02-19T09:38:51.417Z,101120.41
2023-02-19T09:41:28.971Z,101102.06
2023-02-19T09:44:03.804Z,101118.50
2023-02-19T09:46:43.456Z,101088.25
2023-02-19T09:49:21.976Z,101098.31
2023-02-19T09:51:57.564Z,101083.13
2023-02-19T09:54:29.435Z,101108.56
2023-02-19T09:57:01.120Z,101101.47
2023-02-19T09:59:42.981Z,101110.75
2023-02-19T10:02:17.824Z,101110.50
2023-02-19T10:04:48.622Z,101078.94
2023-02-19T10:07:24.638Z,101086.72
2023-02-19T10:10:22.512Z,101123.34
2023-02-19T10:12:54.920Z,101099.97
2023-02-19T10:15:27.400Z,101110.09
2023-02-19T10:17:56.883Z,101108.78
2023-02-19T10:20:28.899Z,101121.97
2023-02-19T10:23:12.240Z,101115.97
2023-02-19T10:26:03.004Z,101110.44
2023-02-19T10:28:35.085Z,101089.97
2023-02-19T10:31:12.914Z,101081.34
2023-02-19T10:33:53.139Z,101055.03
2023-02-19T10:36:43.341Z,101072.22
2023-02-19T10:39:24.143Z,101101.88
2023-02-19T10:41:56.461Z,101090.41
2023-02-19T10:44:32.001Z,101089.53
2023-02-19T10:47:04.302Z,101043.13
2023-02-19T10:49:34.910Z,101098.44
2023-02-19T10:52:28.584Z,101095.75
2023-02-19T10:55:21.602Z,101091.56
2023-02-19T10:57:51.365Z,101069.56
2023-02-19T11:00:29.632Z,101092.13
2023-02-19T11:03:23.312Z,101097.19
2023-02-19T11:06:02.410Z,100970.91
2023-02-19T11:08:34.770Z,101056.44
2023-02-19T11:11:03.934Z,101060.75
2023-02-19T11:13:38.768Z,101088.47
2023-02-19T11:16:07.780Z,101046.69
2023-02-19T11:18:37.112Z,101077.31
2023-02-19T11:21:08.309Z,101070.22
2023-02-19T11:23:44.664Z,101046.84
2023-02-19T11:26:26.920Z,101056.34
2023-02-19T11:29:01.266Z,101050.16
2023-02-19T11:31:36.836Z,100968.56
2023-02-19T11:34:26.811Z,101081.47
2023-02-19T11:37:10.850Z,101062.34
2023-02-19T11:39:42.432Z,101071.13
2023-02-19T11:42:40.626Z,101078.69
2023-02-19T11:45:18.292Z,101077.84
2023-02-19T11:47:59.474Z,101077.66
2023-02-19T11:50:50.117Z,101045.81
2023-02-19T11:53:34.154Z,101073.56
2023-02-19T11:56:20.387Z,101052.44
2023-02-19T11:59:22.916Z,101077.34
2023-02-19T12:02:08.881Z,101038.03
2023-02-19T12:04:55.647Z,101077.03
2023-02-19T12:08:14.604Z,101071.69
2023-02-19T12:11:16.709Z,101075.69
2023-02-19T12:14:25.602Z,101042.19
2023-02-19T12:17:12.426Z,101071.69
2023-02-19T12:20:00.026Z,101046.84
2023-02-19T12:22:29.321Z,101075.63
2023-02-19T12:25:28.837Z,101052.91
2023-02-19T12:28:27.920Z,101069.47
2023-02-19T12:31:15.622Z,101073.69
2023-02-19T12:34:05.358Z,101088.00
2023-02-19T12:36:53.797Z,101079.38
2023-02-19T12:39:44.918Z,101049.97
2023-02-19T12:42:24.998Z,101046.47
2023-02-19T12:45:06.208Z,101027.09
2023-02-19T12:47:41.537Z,101064.03
2023-02-19T12:50:22.542Z,100966.34
2023-02-19T12:53:01.880Z,101047.75
2023-02-19T12:55:37.401Z,101014.16
2023-02-19T12:58:12.382Z,101064.44
2023-02-19T13:00:51.310Z,101060.59
2023-02-19T13:03:38.367Z,101030.59
2023-02-19T13:06:09.416Z,101069.19
2023-02-19T13:09:06.411Z,101033.94
2023-02-19T13:12:04.264Z,101051.50
2023-02-19T13:14:43.866Z,101046.69
2023-02-19T13:17:42.524Z,101063.28
2023-02-19T13:20:30.225Z,101071.81
2023-02-19T13:23:41.745Z,101071.91
2023-02-19T13:26:19.608Z,101080.41
2023-02-19T13:29:20.641Z,101071.97
2023-02-19T13:32:18.279Z,101072.13
2023-02-19T13:34:56.214Z,101074.75
2023-02-19T13:37:26.359Z,101055.53
2023-02-19T13:40:05.669Z,101055.00
2023-02-19T13:42:37.154Z,101048.78
2023-02-19T13:45:07.853Z,101024.78
2023-02-19T13:48:17.825Z,101059.84
2023-02-19T13:50:46.682Z,100999.25
2023-02-19T13:53:54.770Z,101071.81
2023-02-19T13:56:32.307Z,101069.38
2023-02-19T13:59:26.902Z,101065.28
2023-02-19T14:01:55.553Z,101066.31
2023-02-19T14:05:04.241Z,101036.66
2023-02-19T14:07:36.262Z,101056.28
2023-02-19T14:10:12.287Z,101029.19
2023-02-19T14:12:41.086Z,101007.97
2023-02-19T14:15:50.548Z,101068.56
2023-02-19T14:18:45.213Z,101061.88
2023-02-19T14:21:29.078Z,100944.69
2023-02-19T14:23:59.245Z,101023.84
2023-02-19T14:26:28.797Z,100947.47
2023-02-19T14:28:58.215Z,101045.25
2023-02-19T14:31:37.228Z,101049.53
2023-02-19T14:34:16.455Z,100942.78
2023-02-19T14:37:01.297Z,101037.59
2023-02-19T14:39:39.432Z,101023.66
2023-02-19T14:42:23.545Z,101053.44
2023-02-19T14:44:58.091Z,101008.97
2023-02-19T14:47:31.491Z,101034.47
2023-02-19T14:50:06.797Z,101034.38
2023-02-19T14:52:50.812Z,101045.16
2023-02-19T14:55:26.872Z,101002.28
2023-02-19T14:57:57.910Z,101012.03
2023-02-19T15:00:38.019Z,101014.91
2023-02-19T15:03:07.931Z,101037.88
2023-02-19T15:05:38.224Z,101019.28
2023-02-19T15:08:33.136Z,101037.56
2023-02-19T15:11:02.767Z,101034.50
2023-02-19T15:13:32.471Z,101035.25
2023-02-19T15:16:01.372Z,100971.44
2023-02-19T15:18:30.844Z,101036.28
2023-02-19T15:21:03.471Z,101010.94
2023-02-19T15:23:36.612Z,101031.81
2023-02-19T15:26:06.694Z,100988.38
2023-02-19T15:28:35.682Z,101018.75
2023-02-19T15:31:08.401Z,101057.19
2023-02-19T15:33:38.377Z,101020.09
2023-02-19T15:36:10.277Z,101041.84
2023-02-19T15:38:39.400Z,101023.50
2023-02-19T15:41:15.907Z,101035.16
2023-02-19T15:43:54.687Z,100990.28
2023-02-19T15:46:27.177Z,101024.31
2023-02-19T15:49:07.528Z,101022.38
2023-02-19T15:51:42.844Z,100999.78
2023-02-19T15:54:31.404Z,101010.78
2023-02-19T15:57:05.340Z,100987.22
2023-02-19T15:59:42.904Z,101037.72
2023-02-19T16:02:16.759Z,101038.38
2023-02-19T16:04:46.723Z,100949.72
2023-02-19T16:07:35.442Z,101004.84
2023-02-19T16:10:20.945Z,101016.81
2023-02-19T16:13:00.436Z,101004.06
2023-02-19T16:15:31.350Z,101037.16
2023-02-19T16:18:07.482Z,100985.31
2023-02-19T16:20:38.269Z,101000.16
2023-02-19T16:23:16.115Z,101004.31
2023-02-19T16:25:49.244Z,100973.47
2023-02-19T16:28:25.218Z,101042.25
2023-02-19T16:31:14.606Z,101037.78
2023-02-19T16:33:49.103Z,101026.84
2023-02-19T16:36:22.684Z,101040.00
2023-02-19T16:39:00.770Z,101039.78
2023-02-19T16:41:29.453Z,101025.50
2023-02-19T16:43:58.374Z,101018.81
2023-02-19T16:46:27.169Z,101007.25
2023-02-19T16:48:55.822Z,100999.53
2023-02-19T16:51:28.676Z,101030.31
2023-02-19T16:53:57.600Z,100993.38
2023-02-19T16:56:26.520Z,101036.19
2023-02-19T16:58:55.519Z,101003.00
2023-02-19T17:01:24.774Z,101017.94
2023-02-19T17:03:58.113Z,101002.06
2023-02-19T17:06:30.061Z,100996.19
2023-02-19T17:08:58.974Z,101007.75
2023-02-19T17:11:27.919Z,101002.66
2023-02-19T17:13:56.762Z,101033.16
2023-02-19T17:16:32.536Z,101029.41
2023-02-19T17:19:01.643Z,100872.66
2023-02-19T17:21:34.211Z,100984.41
2023-02-19T17:24:04.282Z,101003.91
2023-02-19T17:26:34.494Z,101029.34
2023-02-19T17:29:06.771Z,100995.38
2023-02-19T17:31:35.915Z,101027.81
2023-02-19T17:34:05.203Z,100989.50
2023-02-19T17:36:33.955Z,101003.34
2023-02-19T17:39:05.521Z,101007.16
2023-02-19T17:41:34.366Z,100913.47
2023-02-19T17:44:03.421Z,100954.59
2023-02-19T17:46:32.199Z,100919.69
2023-02-19T17:49:02.194Z,101027.41
2023-02-19T17:51:31.761Z,100893.56
2023-02-19T17:54:00.366Z,101014.75
2023-02-19T17:56:29.338Z,100970.09
2023-02-19T17:58:59.066Z,100994.72
2023-02-19T18:01:27.886Z,100982.28
2023-02-19T18:03:56.820Z,100974.41
2023-02-19T18:06:25.518Z,101011.00
2023-02-19T18:08:54.677Z,100967.97
2023-02-19T18:11:24.279Z,100978.09
2023-02-19T18:13:52.999Z,100991.31
2023-02-19T18:16:24.652Z,100980.94
2023-02-19T18:18:53.497Z,100977.69
2023-02-19T18:21:24.737Z,100964.28
2023-02-19T18:23:53.496Z,101014.88
2023-02-19T18:26:22.220Z,100991.09
2023-02-19T18:28:51.018Z,100976.25
2023-02-19T18:31:20.265Z,100932.03
2023-02-19T18:33:49.737Z,100990.69
2023-02-19T18:36:18.622Z,101023.03
2023-02-19T18:38:47.539Z,100960.31
2023-02-19T18:41:20.273Z,101004.06
2023-02-19T18:43:49.397Z,100968.94
2023-02-19T18:46:21.735Z,101013.25
2023-02-19T18:48:50.487Z,100976.06
2023-02-19T18:51:19.143Z,100896.28
2023-02-19T18:53:47.785Z,100976.19
2023-02-19T18:56:17.149Z,101005.19
2023-02-19T18:58:45.959Z,100997.13
2023-02-19T19:01:15.023Z,100992.59
2023-02-19T19:03:43.906Z,100996.97
2023-02-19T19:06:12.448Z,101005.34
2023-02-19T19:08:43.753Z,100966.63
2023-02-19T19:11:12.830Z,100956.72
2023-02-19T19:13:42.323Z,100997.13
2023-02-19T19:16:11.108Z,100981.13
2023-02-19T19:18:39.609Z,100992.34
2023-02-19T19:21:10.553Z,100964.56
2023-02-19T19:23:39.386Z,100983.72
2023-02-19T19:26:08.181Z,100934.16
2023-02-19T19:28:45.681Z,100981.03
2023-02-19T19:31:16.833Z,100974.75
2023-02-19T19:33:47.510Z,100947.09
2023-02-19T19:36:20.734Z,101004.63
2023-02-19T19:38:50.432Z,100994.31
2023-02-19T19:41:21.083Z,101009.72
2023-02-19T19:43:49.786Z,100946.25
2023-02-19T19:46:21.689Z,100983.22
2023-02-19T19:48:53.780Z,101004.00
2023-02-19T19:51:22.451Z,100882.06
2023-02-19T19:53:51.442Z,100895.56
2023-02-19T19:56:20.096Z,100954.53
2023-02-19T19:58:49.237Z,100989.19
2023-02-19T20:01:21.647Z,100953.63
2023-02-19T20:03:52.246Z,100964.53
2023-02-19T20:06:32.186Z,100954.94
2023-02-19T20:09:01.041Z,100980.66
2023-02-19T20:11:29.650Z,100966.00
2023-02-19T20:13:59.407Z,100977.09
2023-02-19T20:16:29.138Z,100935.56
2023-02-19T20:18:57.982Z,100950.31
2023-02-19T20:21:27.015Z,100939.84
2023-02-19T20:23:55.638Z,100981.00
2023-02-19T20:26:26.397Z,100861.19
2023-02-19T20:28:56.337Z,100953.91
2023-02-19T20:31:26.018Z,100944.94
2023-02-19T20:33:54.938Z,100956.09
2023-02-19T20:36:23.573Z,100958.03
2023-02-19T20:38:52.269Z,100976.69
2023-02-19T20:41:21.005Z,100979.88
2023-02-19T20:43:50.392Z,100947.22
2023-02-19T20:46:22.315Z,100933.03
2023-02-19T20:48:51.996Z,100942.06
2023-02-19T20:51:20.873Z,100927.88
2023-02-19T20:53:49.455Z,100968.03
2023-02-19T20:56:18.625Z,100934.13
2023-02-19T20:58:47.336Z,100962.75
2023-02-19T21:01:16.055Z,100951.41
2023-02-19T21:03:47.735Z,100785.75
2023-02-19T21:06:18.693Z,100909.06
2023-02-19T21:08:47.516Z,100947.34
2023-02-19T21:11:16.251Z,100932.84
2023-02-19T21:13:44.958Z,100932.09
2023-02-19T21:16:13.982Z,100820.53
2023-02-19T21:18:43.260Z,100920.22
2023-02-19T21:21:12.021Z,100933.59
2023-02-19T21:23:40.673Z,100948.91
2023-02-19T21:26:09.520Z,100954.63
2023-02-19T21:28:39.173Z,100927.97
2023-02-19T21:31:07.931Z,100907.78
2023-02-19T21:33:36.774Z,100945.47
2023-02-19T21:36:06.214Z,100939.00
2023-02-19T21:38:34.921Z,100954.16
2023-02-19T21:41:03.716Z,100940.84
2023-02-19T21:43:32.726Z,100935.34
2023-02-19T21:46:01.464Z,100846.94
2023-02-19T21:48:30.213Z,100949.31
2023-02-19T21:50:58.708Z,100918.66
2023-02-19T21:53:27.499Z,100943.91
2023-02-19T21:55:59.397Z,100910.31
2023-02-19T21:58:28.097Z,100955.00
2023-02-19T22:00:58.769Z,100882.50
2023-02-19T22:03:27.377Z,100947.19
2023-02-19T22:05:56.221Z,100910.66
2023-02-19T22:08:24.863Z,100925.19
2023-02-19T22:10:53.455Z,100919.63
2023-02-19T22:13:22.225Z,100827.72
2023-02-19T22:15:50.960Z,100926.28
2023-02-19T22:18:19.467Z,100912.88
2023-02-19T22:20:48.173Z,100909.59
2023-02-19T22:23:16.891Z,100932.31
2023-02-19T22:25:45.591Z,100910.66
2023-02-19T22:28:14.124Z,100816.75
2023-02-19T22:30:43.589Z,100902.38
2023-02-19T22:33:12.083Z,100898.00
2023-02-19T22:35:40.789Z,100916.13
2023-02-19T22:38:09.325Z,100912.41
2023-02-19T22:40:38.088Z,100940.19
2023-02-19T22:43:06.848Z,100935.69
2023-02-19T22:45:35.496Z,100908.81
2023-02-19T22:48:04.410Z,100897.41
2023-02-19T22:50:33.455Z,100912.31
2023-02-19T22:53:02.289Z,100870.16
2023-02-19T22:55:31.743Z,100883.41
2023-02-19T22:58:00.343Z,100882.28
2023-02-19T23:00:28.953Z,100878.47
2023-02-19T23:02:57.826Z,100861.88
2023-02-19T23:05:26.536Z,100923.53
2023-02-19T23:07:55.088Z,100902.47
2023-02-19T23:10:24.008Z,100895.44
2023-02-19T23:12:52.527Z,100877.44
2023-02-19T23:15:21.090Z,100794.28
2023-02-19T23:17:49.599Z,100882.66
2023-02-19T23:20:18.335Z,100871.44
2023-02-19T23:22:46.659Z,100877.28
2023-02-19T23:25:15.473Z,100874.22
2023-02-19T23:27:44.305Z,100872.25
2023-02-19T23:30:13.650Z,100891.81
2023-02-19T23:32:42.358Z,100908.53
2023-02-19T23:35:11.386Z,100894.28
2023-02-19T23:37:40.083Z,100863.94
2023-02-19T23:40:09.290Z,100821.63
2023-02-19T23:42:38.156Z,100840.94
2023-02-19T23:45:07.089Z,100875.16
2023-02-19T23:47:35.801Z,100873.63
2023-02-19T23:50:04.383Z,100818.50
2023-02-19T23:52:33.165Z,100823.34
2023-02-19T23:55:01.769Z,100835.03
2023-02-19T23:57:30.448Z,100812.63
2023-02-19T23:59:59.218Z,100848.88
